sensor_id;sensor_type;location;lat;lon;timestamp;pressure;altitude;pressure_sealevel;temperature;humidity
54262;BME280;40174;52.364;6.452;2024-03-06T00:02:22;101545.75;;;6.45;100.00
54262;BME280;40174;52.364;6.452;2024-03-06T00:04:49;101552.72;;;6.47;100.00
54262;BME280;40174;52.364;6.452;2024-03-06T00:07:16;101545.84;;;6.44;100.00
54262;BME280;40174;52.364;6.452;2024-03-06T00:09:42;101542.47;;;6.42;100.00
54262;BME280;40174;52.364;6.452;2024-03-06T00:12:11;101542.47;;;6.42;100.00
54262;BME280;40174;52.364;6.452;2024-03-06T00:14:38;101549.50;;;6.41;100.00
54262;BME280;40174;52.364;6.452;2024-03-06T00:17:04;101551.19;;;6.42;100.00
54262;BME280;40174;52.364;6.452;2024-03-06T00:19:32;101551.13;;;6.44;100.00
54262;BME280;40174;52.364;6.452;2024-03-06T00:21:59;101546.78;;;6.43;100.00
54262;BME280;40174;52.364;6.452;2024-03-06T00:24:26;101558.28;;;6.40;100.00
54262;BME280;40174;52.364;6.452;2024-03-06T00:26:53;101551.41;;;6.38;100.00
54262;BME280;40174;52.364;6.452;2024-03-06T00:29:21;101560.97;;;6.39;100.00
54262;BME280;40174;52.364;6.452;2024-03-06T00:31:47;101567.16;;;6.38;100.00
54262;BME280;40174;52.364;6.452;2024-03-06T00:34:14;101571.94;;;6.30;100.00
54262;BME280;40174;52.364;6.452;2024-03-06T00:36:41;101573.66;;;6.31;100.00
54262;BME280;40174;52.364;6.452;2024-03-06T00:39:09;101572.72;;;6.32;100.00
54262;BME280;40174;52.364;6.452;2024-03-06T00:41:35;101574.50;;;6.31;100.00
54262;BME280;40174;52.364;6.452;2024-03-06T00:44:03;101588.66;;;6.29;100.00
54262;BME280;40174;52.364;6.452;2024-03-06T00:46:31;101587.03;;;6.26;100.00
54262;BME280;40174;52.364;6.452;2024-03-06T00:48:57;101584.41;;;6.26;100.00
54262;BME280;40174;52.364;6.452;2024-03-06T00:51:24;101587.88;;;6.27;100.00
54262;BME280;40174;52.364;6.452;2024-03-06T00:53:51;101584.41;;;6.26;100.00
54262;BME280;40174;52.364;6.452;2024-03-06T00:56:17;101594.44;;;6.18;100.00
54262;BME280;40174;52.364;6.452;2024-03-06T00:58:44;101595.25;;;6.18;100.00
54262;BME280;40174;52.364;6.452;2024-03-06T01:01:10;101602.13;;;6.21;100.00
54262;BME280;40174;52.364;6.452;2024-03-06T01:03:38;101598.84;;;6.17;100.00
54262;BME280;40174;52.364;6.452;2024-03-06T01:06:05;101601.69;;;6.13;100.00
54262;BME280;40174;52.364;6.452;2024-03-06T01:08:31;101604.22;;;6.14;100.00
54262;BME280;40174;52.364;6.452;2024-03-06T01:10:58;101611.41;;;6.11;100.00
54262;BME280;40174;52.364;6.452;2024-03-06T01:13:25;101610.69;;;6.07;100.00
54262;BME280;40174;52.364;6.452;2024-03-06T01:15:51;101610.69;;;6.07;100.00
54262;BME280;40174;52.364;6.452;2024-03-06T01:18:18;101614.03;;;6.11;100.00
54262;BME280;40174;52.364;6.452;2024-03-06T01:20:46;101610.78;;;6.06;100.00
54262;BME280;40174;52.364;6.452;2024-03-06T01:23:13;101615.94;;;6.07;100.00
54262;BME280;40174;52.364;6.452;2024-03-06T01:25:40;101614.09;;;6.09;100.00
54262;BME280;40174;52.364;6.452;2024-03-06T01:28:07;101613.09;;;6.12;100.00
54262;BME280;40174;52.364;6.452;2024-03-06T01:30:33;101625.22;;;6.14;100.00
54262;BME280;40174;52.364;6.452;2024-03-06T01:33:00;101618.34;;;6.12;100.00
54262;BME280;40174;52.364;6.452;2024-03-06T01:35:26;101615.81;;;6.10;100.00
54262;BME280;40174;52.364;6.452;2024-03-06T01:37:54;101622.59;;;6.14;100.00
54262;BME280;40174;52.364;6.452;2024-03-06T01:40:21;101626.38;;;6.09;100.00
54262;BME280;40174;52.364;6.452;2024-03-06T01:42:48;101615.94;;;6.07;100.00
54262;BME280;40174;52.364;6.452;2024-03-06T01:45:14;101623.81;;;6.07;100.00
54262;BME280;40174;52.364;6.452;2024-03-06T01:47:41;101622.13;;;6.06;100.00
54262;BME280;40174;52.364;6.452;2024-03-06T01:50:08;101631.91;;;6.02;100.00
54262;BME280;40174;52.364;6.452;2024-03-06T01:52:36;101626.66;;;6.02;100.00
54262;BME280;40174;52.364;6.452;2024-03-06T01:55:07;101632.69;;;6.04;100.00
54262;BME280;40174;52.364;6.452;2024-03-06T01:57:34;101630.06;;;6.04;100.00
54262;BME280;40174;52.364;6.452;2024-03-06T02:00:03;101630.22;;;6.01;100.00
54262;BME280;40174;52.364;6.452;2024-03-06T02:02:30;101628.44;;;6.02;100.00
54262;BME280;40174;52.364;6.452;2024-03-06T02:04:57;101632.06;;;5.99;100.00
54262;BME280;40174;52.364;6.452;2024-03-06T02:07:25;101628.50;;;6.00;100.00
54262;BME280;40174;52.364;6.452;2024-03-06T02:09:52;101638.78;;;6.05;100.00
54262;BME280;40174;52.364;6.452;2024-03-06T02:12:20;101631.06;;;6.02;100.00
54262;BME280;40174;52.364;6.452;2024-03-06T02:14:46;101641.72;;;5.99;100.00
54262;BME280;40174;52.364;6.452;2024-03-06T02:17:13;101644.03;;;6.05;100.00
54262;BME280;40174;52.364;6.452;2024-03-06T02:19:40;101647.38;;;6.09;100.00
54262;BME280;40174;52.364;6.452;2024-03-06T02:22:08;101647.38;;;6.09;100.00
54262;BME280;40174;52.364;6.452;2024-03-06T02:24:35;101642.91;;;6.11;100.00
54262;BME280;40174;52.364;6.452;2024-03-06T02:27:02;101645.38;;;6.14;100.00
54262;BME280;40174;52.364;6.452;2024-03-06T02:29:31;101639.44;;;6.10;100.00
54262;BME280;40174;52.364;6.452;2024-03-06T02:31:57;101648.16;;;6.11;100.00
54262;BME280;40174;52.364;6.452;2024-03-06T02:34:24;101643.97;;;6.07;100.00
54262;BME280;40174;52.364;6.452;2024-03-06T02:36:51;101649.44;;;6.02;100.00
54262;BME280;40174;52.364;6.452;2024-03-06T02:39:19;101656.47;;;6.01;100.00
54262;BME280;40174;52.364;6.452;2024-03-06T02:41:46;101651.44;;;5.97;100.00
54262;BME280;40174;52.364;6.452;2024-03-06T02:44:14;101664.63;;;5.95;100.00
54262;BME280;40174;52.364;6.452;2024-03-06T02:46:41;101652.47;;;5.93;100.00
54262;BME280;40174;52.364;6.452;2024-03-06T02:49:07;101658.53;;;5.95;100.00
54262;BME280;40174;52.364;6.452;2024-03-06T02:51:34;101654.06;;;5.97;100.00
54262;BME280;40174;52.364;6.452;2024-03-06T02:54:01;101645.19;;;5.99;100.00
54262;BME280;40174;52.364;6.452;2024-03-06T02:56:29;101639.78;;;6.02;100.00
54262;BME280;40174;52.364;6.452;2024-03-06T02:58:55;101655.31;;;6.07;100.00
54262;BME280;40174;52.364;6.452;2024-03-06T03:01:22;101651.28;;;6.00;100.00
54262;BME280;40174;52.364;6.452;2024-03-06T03:03:49;101657.47;;;5.99;100.00
54262;BME280;40174;52.364;6.452;2024-03-06T03:06:16;101654.13;;;5.95;100.00
54262;BME280;40174;52.364;6.452;2024-03-06T03:08:43;101661.94;;;5.97;100.00
54262;BME280;40174;52.364;6.452;2024-03-06T03:11:10;101661.84;;;5.98;100.00
54262;BME280;40174;52.364;6.452;2024-03-06T03:13:39;101660.94;;;5.99;100.00
54262;BME280;40174;52.364;6.452;2024-03-06T03:16:05;101659.00;;;6.03;100.00
54262;BME280;40174;52.364;6.452;2024-03-06T03:18:32;101659.00;;;6.03;100.00
54262;BME280;40174;52.364;6.452;2024-03-06T03:20:59;101657.25;;;6.03;100.00
54262;BME280;40174;52.364;6.452;2024-03-06T03:23:26;101663.50;;;6.01;100.00
54262;BME280;40174;52.364;6.452;2024-03-06T03:25:53;101661.72;;;6.01;100.00
54262;BME280;40174;52.364;6.452;2024-03-06T03:28:19;101663.56;;;5.99;100.00
54262;BME280;40174;52.364;6.452;2024-03-06T03:30:47;101666.97;;;6.01;100.00
54262;BME280;40174;52.364;6.452;2024-03-06T03:33:14;101659.94;;;6.02;100.00
54262;BME280;40174;52.364;6.452;2024-03-06T03:35:40;101669.66;;;6.00;100.00
54262;BME280;40174;52.364;6.452;2024-03-06T03:38:07;101666.97;;;6.01;100.00
54262;BME280;40174;52.364;6.452;2024-03-06T03:40:33;101669.59;;;6.01;100.00
54262;BME280;40174;52.364;6.452;2024-03-06T03:43:00;101672.34;;;5.98;100.00
54262;BME280;40174;52.364;6.452;2024-03-06T03:45:32;101674.13;;;5.98;100.00
54262;BME280;40174;52.364;6.452;2024-03-06T03:48:00;101673.28;;;5.97;100.00
54262;BME280;40174;52.364;6.452;2024-03-06T03:50:28;101669.81;;;5.97;100.00
54262;BME280;40174;52.364;6.452;2024-03-06T03:52:54;101670.59;;;5.99;100.00
54262;BME280;40174;52.364;6.452;2024-03-06T03:55:23;101666.25;;;5.98;100.00
54262;BME280;40174;52.364;6.452;2024-03-06T03:57:50;101673.22;;;5.99;100.00
54262;BME280;40174;52.364;6.452;2024-03-06T04:00:18;101672.44;;;5.97;100.00
54262;BME280;40174;52.364;6.452;2024-03-06T04:02:45;101672.34;;;5.98;100.00
54262;BME280;40174;52.364;6.452;2024-03-06T04:05:13;101675.06;;;5.97;100.00
54262;BME280;40174;52.364;6.452;2024-03-06T04:07:39;101683.78;;;5.97;100.00
54262;BME280;40174;52.364;6.452;2024-03-06T04:10:07;101678.59;;;5.96;100.00
54262;BME280;40174;52.364;6.452;2024-03-06T04:12:36;101686.56;;;5.94;100.00
54262;BME280;40174;52.364;6.452;2024-03-06T04:15:04;101687.66;;;5.89;100.00
54262;BME280;40174;52.364;6.452;2024-03-06T04:17:30;101690.28;;;5.89;100.00
54262;BME280;40174;52.364;6.452;2024-03-06T04:19:57;101695.47;;;5.90;100.00
54262;BME280;40174;52.364;6.452;2024-03-06T04:22:25;101691.72;;;5.96;100.00
54262;BME280;40174;52.364;6.452;2024-03-06T04:24:52;101690.81;;;5.97;100.00
54262;BME280;40174;52.364;6.452;2024-03-06T04:27:18;101698.94;;;5.91;100.00
54262;BME280;40174;52.364;6.452;2024-03-06T04:29:45;101696.38;;;5.89;100.00
54262;BME280;40174;52.364;6.452;2024-03-06T04:32:11;101699.22;;;5.84;100.00
54262;BME280;40174;52.364;6.452;2024-03-06T04:34:38;101695.69;;;5.86;100.00
54262;BME280;40174;52.364;6.452;2024-03-06T04:37:04;101701.94;;;5.83;100.00
54262;BME280;40174;52.364;6.452;2024-03-06T04:39:33;101699.38;;;5.81;100.00
54262;BME280;40174;52.364;6.452;2024-03-06T04:42:00;101716.78;;;5.82;100.00
54262;BME280;40174;52.364;6.452;2024-03-06T04:44:27;101716.78;;;5.82;100.00
54262;BME280;40174;52.364;6.452;2024-03-06T04:46:54;101712.47;;;5.81;100.00
54262;BME280;40174;52.364;6.452;2024-03-06T04:49:21;101720.19;;;5.84;100.00
54262;BME280;40174;52.364;6.452;2024-03-06T04:51:48;101721.03;;;5.85;100.00
54262;BME280;40174;52.364;6.452;2024-03-06T04:54:14;101722.75;;;5.86;100.00
54262;BME280;40174;52.364;6.452;2024-03-06T04:56:42;101727.22;;;5.84;100.00
54262;BME280;40174;52.364;6.452;2024-03-06T04:59:09;101733.31;;;5.84;100.00
54262;BME280;40174;52.364;6.452;2024-03-06T05:01:36;101725.53;;;5.83;100.00
54262;BME280;40174;52.364;6.452;2024-03-06T05:04:02;101726.22;;;5.87;100.00
54262;BME280;40174;52.364;6.452;2024-03-06T05:06:29;101731.53;;;5.85;100.00
54262;BME280;40174;52.364;6.452;2024-03-06T05:08:56;101729.28;;;5.77;100.00
54262;BME280;40174;52.364;6.452;2024-03-06T05:11:22;101726.72;;;5.76;100.00
54262;BME280;40174;52.364;6.452;2024-03-06T05:13:52;101735.31;;;5.79;100.00
54262;BME280;40174;52.364;6.452;2024-03-06T05:16:19;101733.41;;;5.83;100.00
54262;BME280;40174;52.364;6.452;2024-03-06T05:18:48;101731.69;;;5.82;100.00
54262;BME280;40174;52.364;6.452;2024-03-06T05:21:15;101740.56;;;5.79;100.00
54262;BME280;40174;52.364;6.452;2024-03-06T05:23:41;101755.31;;;5.82;100.00
54262;BME280;40174;52.364;6.452;2024-03-06T05:26:08;101750.00;;;5.83;100.00
54262;BME280;40174;52.364;6.452;2024-03-06T05:28:35;101748.38;;;5.81;100.00
54262;BME280;40174;52.364;6.452;2024-03-06T05:31:15;101750.84;;;5.84;100.00
54262;BME280;40174;52.364;6.452;2024-03-06T05:33:43;101749.16;;;5.83;100.00
54262;BME280;40174;52.364;6.452;2024-03-06T05:36:10;101761.34;;;5.84;100.00
54262;BME280;40174;52.364;6.452;2024-03-06T05:38:38;101764.09;;;5.81;100.00
54262;BME280;40174;52.364;6.452;2024-03-06T05:41:04;101760.59;;;5.80;100.00
54262;BME280;40174;52.364;6.452;2024-03-06T05:43:31;101773.66;;;5.82;100.00
54262;BME280;40174;52.364;6.452;2024-03-06T05:45:58;101778.06;;;5.81;100.00
54262;BME280;40174;52.364;6.452;2024-03-06T05:48:25;101769.34;;;5.81;100.00
54262;BME280;40174;52.364;6.452;2024-03-06T05:50:52;101780.69;;;5.81;100.00
54262;BME280;40174;52.364;6.452;2024-03-06T05:53:18;101775.50;;;5.80;100.00
54262;BME280;40174;52.364;6.452;2024-03-06T05:55:45;101784.38;;;5.77;100.00
54262;BME280;40174;52.364;6.452;2024-03-06T05:58:12;101791.25;;;5.80;100.00
54262;BME280;40174;52.364;6.452;2024-03-06T06:00:39;101793.25;;;5.75;100.00
54262;BME280;40174;52.364;6.452;2024-03-06T06:03:05;101801.09;;;5.75;100.00
54262;BME280;40174;52.364;6.452;2024-03-06T06:05:33;101795.00;;;5.74;100.00
54262;BME280;40174;52.364;6.452;2024-03-06T06:08:02;101810.59;;;5.77;100.00
54262;BME280;40174;52.364;6.452;2024-03-06T06:10:28;101808.91;;;5.76;100.00
54262;BME280;40174;52.364;6.452;2024-03-06T06:12:55;101799.31;;;5.75;100.00
54262;BME280;40174;52.364;6.452;2024-03-06T06:15:22;101805.56;;;5.73;100.00
54262;BME280;40174;52.364;6.452;2024-03-06T06:17:49;101810.59;;;5.77;100.00
54262;BME280;40174;52.364;6.452;2024-03-06T06:20:15;101814.28;;;5.73;100.00
54262;BME280;40174;52.364;6.452;2024-03-06T06:22:44;101814.38;;;5.72;100.00
54262;BME280;40174;52.364;6.452;2024-03-06T06:25:11;101818.69;;;5.73;100.00
54262;BME280;40174;52.364;6.452;2024-03-06T06:27:37;101829.91;;;5.76;100.00
54262;BME280;40174;52.364;6.452;2024-03-06T06:30:05;101835.34;;;5.72;100.00
54262;BME280;40174;52.364;6.452;2024-03-06T06:32:36;101836.25;;;5.71;100.00
54262;BME280;40174;52.364;6.452;2024-03-06T06:35:04;101845.25;;;5.65;100.00
54262;BME280;40174;52.364;6.452;2024-03-06T06:37:31;101845.06;;;5.70;100.00
54262;BME280;40174;52.364;6.452;2024-03-06T06:39:58;101856.47;;;5.69;100.00
54262;BME280;40174;52.364;6.452;2024-03-06T06:42:28;101856.59;;;5.66;100.00
54262;BME280;40174;52.364;6.452;2024-03-06T06:44:54;101863.63;;;5.65;100.00
54262;BME280;40174;52.364;6.452;2024-03-06T06:47:21;101860.13;;;5.65;100.00
54262;BME280;40174;52.364;6.452;2024-03-06T06:49:48;101866.25;;;5.65;100.00
54262;BME280;40174;52.364;6.452;2024-03-06T06:52:14;101874.81;;;5.69;100.00
54262;BME280;40174;52.364;6.452;2024-03-06T06:54:41;101873.19;;;5.66;100.00
54262;BME280;40174;52.364;6.452;2024-03-06T06:57:09;101876.06;;;5.60;100.00
54262;BME280;40174;52.364;6.452;2024-03-06T06:59:36;101876.16;;;5.58;100.00
54262;BME280;40174;52.364;6.452;2024-03-06T07:02:03;101878.19;;;5.52;100.00
54262;BME280;40174;52.364;6.452;2024-03-06T07:04:29;101878.81;;;5.57;100.00
54262;BME280;40174;52.364;6.452;2024-03-06T07:06:56;101877.69;;;5.62;100.00
54262;BME280;40174;52.364;6.452;2024-03-06T07:09:22;101897.44;;;5.71;100.00
54262;BME280;40174;52.364;6.452;2024-03-06T07:11:50;101901.78;;;5.72;100.00
54262;BME280;40174;52.364;6.452;2024-03-06T07:14:18;101900.00;;;5.73;100.00
54262;BME280;40174;52.364;6.452;2024-03-06T07:16:45;101895.16;;;5.63;100.00
54262;BME280;40174;52.364;6.452;2024-03-06T07:19:12;101901.91;;;5.69;100.00
54262;BME280;40174;52.364;6.452;2024-03-06T07:21:39;101895.16;;;5.63;100.00
54262;BME280;40174;52.364;6.452;2024-03-06T07:24:06;101904.53;;;5.69;100.00
54262;BME280;40174;52.364;6.452;2024-03-06T07:26:33;101906.25;;;5.70;100.00
54262;BME280;40174;52.364;6.452;2024-03-06T07:28:59;101901.69;;;5.74;100.00
54262;BME280;40174;52.364;6.452;2024-03-06T07:31:27;101904.59;;;5.68;100.00
54262;BME280;40174;52.364;6.452;2024-03-06T07:33:54;101919.59;;;5.64;100.00
54262;BME280;40174;52.364;6.452;2024-03-06T07:36:21;101912.34;;;5.71;100.00
54262;BME280;40174;52.364;6.452;2024-03-06T07:38:48;101921.00;;;5.73;100.00
54262;BME280;40174;52.364;6.452;2024-03-06T07:41:14;101912.34;;;5.71;100.00
54262;BME280;40174;52.364;6.452;2024-03-06T07:43:41;101917.59;;;5.71;100.00
54262;BME280;40174;52.364;6.452;2024-03-06T07:46:07;101921.84;;;5.73;100.00
54262;BME280;40174;52.364;6.452;2024-03-06T07:48:37;101923.41;;;5.77;100.00
54262;BME280;40174;52.364;6.452;2024-03-06T07:51:04;101925.06;;;5.80;100.00
54262;BME280;40174;52.364;6.452;2024-03-06T07:53:31;101935.56;;;5.80;100.00
54262;BME280;40174;52.364;6.452;2024-03-06T07:55:57;101937.47;;;5.76;100.00
54262;BME280;40174;52.364;6.452;2024-03-06T07:58:24;101952.47;;;5.73;100.00
54262;BME280;40174;52.364;6.452;2024-03-06T08:00:51;101945.53;;;5.72;100.00
54262;BME280;40174;52.364;6.452;2024-03-06T08:03:20;101949.13;;;5.69;100.00
54262;BME280;40174;52.364;6.452;2024-03-06T08:05:50;101958.72;;;5.70;100.00
54262;BME280;40174;52.364;6.452;2024-03-06T08:08:17;101964.00;;;5.69;100.00
54262;BME280;40174;52.364;6.452;2024-03-06T08:10:44;101958.47;;;5.76;100.00
54262;BME280;40174;52.364;6.452;2024-03-06T08:13:11;101962.44;;;5.85;100.00
54262;BME280;40174;52.364;6.452;2024-03-06T08:15:37;101964.00;;;5.89;100.00
54262;BME280;40174;52.364;6.452;2024-03-06T08:18:05;101977.13;;;5.89;100.00
54262;BME280;40174;52.364;6.452;2024-03-06T08:20:32;101971.03;;;5.89;100.00
54262;BME280;40174;52.364;6.452;2024-03-06T08:23:00;101974.66;;;5.86;100.00
54262;BME280;40174;52.364;6.452;2024-03-06T08:25:27;101977.03;;;5.92;100.00
54262;BME280;40174;52.364;6.452;2024-03-06T08:27:53;101974.22;;;5.97;100.00
54262;BME280;40174;52.364;6.452;2024-03-06T08:30:20;101970.47;;;6.02;100.00
54262;BME280;40174;52.364;6.452;2024-03-06T08:32:47;101975.47;;;6.09;100.00
54262;BME280;40174;52.364;6.452;2024-03-06T08:35:13;101983.41;;;6.07;100.00
54262;BME280;40174;52.364;6.452;2024-03-06T08:37:40;101978.25;;;6.06;100.00
54262;BME280;40174;52.364;6.452;2024-03-06T08:40:10;101985.13;;;6.08;100.00
54262;BME280;40174;52.364;6.452;2024-03-06T08:42:40;101986.81;;;6.09;100.00
54262;BME280;40174;52.364;6.452;2024-03-06T08:45:06;101984.09;;;6.12;100.00
54262;BME280;40174;52.364;6.452;2024-03-06T08:47:34;101990.97;;;6.15;100.00
54262;BME280;40174;52.364;6.452;2024-03-06T08:50:00;102002.38;;;6.14;100.00
54262;BME280;40174;52.364;6.452;2024-03-06T08:52:27;101995.28;;;6.16;100.00
54262;BME280;40174;52.364;6.452;2024-03-06T08:54:56;102003.50;;;6.29;100.00
54262;BME280;40174;52.364;6.452;2024-03-06T08:57:23;102000.88;;;6.29;100.00
54262;BME280;40174;52.364;6.452;2024-03-06T08:59:51;102009.38;;;6.34;100.00
54262;BME280;40174;52.364;6.452;2024-03-06T09:02:19;102018.47;;;6.27;100.00
54262;BME280;40174;52.364;6.452;2024-03-06T09:04:46;102016.63;;;6.29;100.00
54262;BME280;40174;52.364;6.452;2024-03-06T09:07:14;102020.03;;;6.31;100.00
54262;BME280;40174;52.364;6.452;2024-03-06T09:09:40;102016.47;;;6.32;100.00
54262;BME280;40174;52.364;6.452;2024-03-06T09:12:08;102020.72;;;6.34;100.00
54262;BME280;40174;52.364;6.452;2024-03-06T09:14:37;102031.63;;;6.45;100.00
54262;BME280;40174;52.364;6.452;2024-03-06T09:17:04;102034.78;;;6.54;100.00
54262;BME280;40174;52.364;6.452;2024-03-06T09:19:32;102034.72;;;6.55;100.00
54262;BME280;40174;52.364;6.452;2024-03-06T09:21:59;102036.09;;;6.64;100.00
54262;BME280;40174;52.364;6.452;2024-03-06T09:24:25;102044.41;;;6.74;100.00
54262;BME280;40174;52.364;6.452;2024-03-06T09:26:53;102043.94;;;6.84;100.00
54262;BME280;40174;52.364;6.452;2024-03-06T09:29:20;102047.91;;;6.93;100.00
54262;BME280;40174;52.364;6.452;2024-03-06T09:31:48;102046.91;;;6.96;100.00
54262;BME280;40174;52.364;6.452;2024-03-06T09:34:15;102053.59;;;7.03;100.00
54262;BME280;40174;52.364;6.452;2024-03-06T09:36:45;102059.69;;;7.03;100.00
54262;BME280;40174;52.364;6.452;2024-03-06T09:39:12;102063.84;;;7.09;100.00
54262;BME280;40174;52.364;6.452;2024-03-06T09:41:40;102063.41;;;7.18;100.00
54262;BME280;40174;52.364;6.452;2024-03-06T09:44:07;102066.09;;;7.36;100.00
54262;BME280;40174;52.364;6.452;2024-03-06T09:46:34;102065.38;;;7.51;100.00
54262;BME280;40174;52.364;6.452;2024-03-06T09:49:03;102064.78;;;7.63;100.00
54262;BME280;40174;52.364;6.452;2024-03-06T09:51:31;102074.69;;;7.76;100.00
54262;BME280;40174;52.364;6.452;2024-03-06T09:53:58;102069.25;;;7.80;100.00
54262;BME280;40174;52.364;6.452;2024-03-06T09:56:25;102076.13;;;7.83;100.00
54262;BME280;40174;52.364;6.452;2024-03-06T09:58:51;102079.69;;;7.82;100.00
54262;BME280;40174;52.364;6.452;2024-03-06T10:01:21;102086.34;;;7.89;100.00
54262;BME280;40174;52.364;6.452;2024-03-06T10:03:49;102078.38;;;7.90;100.00
54262;BME280;40174;52.364;6.452;2024-03-06T10:06:17;102084.19;;;7.97;100.00
54262;BME280;40174;52.364;6.452;2024-03-06T10:08:44;102081.25;;;8.03;100.00
54262;BME280;40174;52.364;6.452;2024-03-06T10:11:11;102083.19;;;8.17;100.00
54262;BME280;40174;52.364;6.452;2024-03-06T10:13:38;102087.53;;;8.36;100.00
54262;BME280;40174;52.364;6.452;2024-03-06T10:16:06;102093.44;;;8.58;100.00
54262;BME280;40174;52.364;6.452;2024-03-06T10:18:35;102097.91;;;8.73;100.00
54262;BME280;40174;52.364;6.452;2024-03-06T10:21:04;102089.97;;;8.91;100.00
54262;BME280;40174;52.364;6.452;2024-03-06T10:23:32;102094.50;;;9.05;100.00
54262;BME280;40174;52.364;6.452;2024-03-06T10:26:00;102098.19;;;9.18;100.00
54262;BME280;40174;52.364;6.452;2024-03-06T10:28:27;102105.84;;;9.23;100.00
54262;BME280;40174;52.364;6.452;2024-03-06T10:31:03;102105.53;;;9.29;100.00
54262;BME280;40174;52.364;6.452;2024-03-06T10:33:31;102099.16;;;9.49;100.00
54262;BME280;40174;52.364;6.452;2024-03-06T10:35:58;102098.44;;;9.61;100.00
54262;BME280;40174;52.364;6.452;2024-03-06T10:38:26;102114.13;;;9.64;100.00
54262;BME280;40174;52.364;6.452;2024-03-06T10:40:59;102097.25;;;9.83;100.00
54262;BME280;40174;52.364;6.452;2024-03-06T10:43:28;102106.56;;;10.04;100.00
54262;BME280;40174;52.364;6.452;2024-03-06T10:46:00;102113.59;;;10.19;100.00
54262;BME280;40174;52.364;6.452;2024-03-06T10:48:30;102101.13;;;10.37;100.00
54262;BME280;40174;52.364;6.452;2024-03-06T10:50:57;102118.19;;;10.62;100.00
54262;BME280;40174;52.364;6.452;2024-03-06T10:53:26;102113.09;;;10.29;100.00
54262;BME280;40174;52.364;6.452;2024-03-06T10:55:54;102118.03;;;10.19;100.00
54262;BME280;40174;52.364;6.452;2024-03-06T10:58:23;102116.78;;;10.10;100.00
54262;BME280;40174;52.364;6.452;2024-03-06T11:00:51;102111.69;;;10.07;100.00
54262;BME280;40174;52.364;6.452;2024-03-06T11:03:18;102112.94;;;10.16;100.00
54262;BME280;40174;52.364;6.452;2024-03-06T11:05:45;102120.94;;;10.30;100.00
54262;BME280;40174;52.364;6.452;2024-03-06T11:08:13;102120.63;;;10.51;100.00
54262;BME280;40174;52.364;6.452;2024-03-06T11:10:43;102123.38;;;10.78;100.00
54262;BME280;40174;52.364;6.452;2024-03-06T11:13:22;102119.63;;;10.82;100.00
54262;BME280;40174;52.364;6.452;2024-03-06T11:15:50;102120.38;;;10.70;100.00
54262;BME280;40174;52.364;6.452;2024-03-06T11:18:45;102126.31;;;10.59;100.00
54262;BME280;40174;52.364;6.452;2024-03-06T11:21:28;102130.63;;;10.60;100.00
54262;BME280;40174;52.364;6.452;2024-03-06T11:24:20;102128.03;;;10.74;100.00
54262;BME280;40174;52.364;6.452;2024-03-06T11:26:54;102128.44;;;10.97;100.00
54262;BME280;40174;52.364;6.452;2024-03-06T11:29:24;102132.13;;;10.94;100.00
54262;BME280;40174;52.364;6.452;2024-03-06T11:32:01;102134.56;;;10.83;100.00
54262;BME280;40174;52.364;6.452;2024-03-06T11:34:28;102136.72;;;11.05;100.00
54262;BME280;40174;52.364;6.452;2024-03-06T11:36:56;102139.94;;;11.24;100.00
54262;BME280;40174;52.364;6.452;2024-03-06T11:39:23;102127.91;;;11.48;100.00
54262;BME280;40174;52.364;6.452;2024-03-06T11:41:50;102128.78;;;11.34;100.00
54262;BME280;40174;52.364;6.452;2024-03-06T11:44:18;102135.03;;;11.04;100.00
54262;BME280;40174;52.364;6.452;2024-03-06T11:46:48;102137.84;;;10.87;100.00
54262;BME280;40174;52.364;6.452;2024-03-06T11:49:16;102133.13;;;10.77;100.00
54262;BME280;40174;52.364;6.452;2024-03-06T11:51:46;102133.50;;;10.71;100.00
54262;BME280;40174;52.364;6.452;2024-03-06T11:54:13;102133.81;;;10.95;100.00
54262;BME280;40174;52.364;6.452;2024-03-06T11:56:43;102135.78;;;10.92;100.00
54262;BME280;40174;52.364;6.452;2024-03-06T11:59:12;102139.94;;;10.81;100.00
54262;BME280;40174;52.364;6.452;2024-03-06T12:01:40;102138.97;;;10.68;100.00
54262;BME280;40174;52.364;6.452;2024-03-06T12:04:08;102133.66;;;10.54;100.00
54262;BME280;40174;52.364;6.452;2024-03-06T12:06:37;102137.78;;;10.44;100.00
54262;BME280;40174;52.364;6.452;2024-03-06T12:09:04;102139.84;;;10.38;100.00
54262;BME280;40174;52.364;6.452;2024-03-06T12:11:31;102146.56;;;10.28;100.00
54262;BME280;40174;52.364;6.452;2024-03-06T12:13:57;102145.22;;;10.21;100.00
54262;BME280;40174;52.364;6.452;2024-03-06T12:16:24;102151.13;;;10.10;100.00
54262;BME280;40174;52.364;6.452;2024-03-06T12:18:54;102145.00;;;10.10;100.00
54262;BME280;40174;52.364;6.452;2024-03-06T12:21:27;102149.34;;;10.11;100.00
54262;BME280;40174;52.364;6.452;2024-03-06T12:24:02;102138.94;;;10.08;100.00
54262;BME280;40174;52.364;6.452;2024-03-06T12:26:29;102149.56;;;10.22;100.00
54262;BME280;40174;52.364;6.452;2024-03-06T12:29:06;102147.44;;;10.29;100.00
54262;BME280;40174;52.364;6.452;2024-03-06T12:31:34;102142.16;;;10.29;100.00
54262;BME280;40174;52.364;6.452;2024-03-06T12:34:02;102149.09;;;10.31;100.00
54262;BME280;40174;52.364;6.452;2024-03-06T12:36:33;102150.19;;;10.57;100.00
54262;BME280;40174;52.364;6.452;2024-03-06T12:39:01;102154.22;;;11.08;100.00
54262;BME280;40174;52.364;6.452;2024-03-06T12:41:28;102158.81;;;11.47;100.00
54262;BME280;40174;52.364;6.452;2024-03-06T12:43:56;102156.50;;;11.70;100.00
54262;BME280;40174;52.364;6.452;2024-03-06T12:46:23;102160.47;;;11.77;100.00
54262;BME280;40174;52.364;6.452;2024-03-06T12:48:51;102160.81;;;11.85;100.00
54262;BME280;40174;52.364;6.452;2024-03-06T12:51:18;102162.81;;;11.81;100.00